sensor_id;sensor_type;location;lat;lon;timestamp;P1;durP1;ratioP1;P2;durP2;ratioP2
66425;SDS011;53237;46.158;14.604;2022-12-16T00:01:18;27.45;;;22.45;;
66425;SDS011;53237;46.158;14.604;2022-12-16T00:03:47;52.85;;;37.58;;
66425;SDS011;53237;46.158;14.604;2022-12-16T00:06:14;46.55;;;36.20;;
66425;SDS011;53237;46.158;14.604;2022-12-16T00:08:40;45.03;;;36.30;;
66425;SDS011;53237;46.158;14.604;2022-12-16T00:11:06;51.45;;;39.72;;
66425;SDS011;53237;46.158;14.604;2022-12-16T00:13:33;35.33;;;30.20;;
66425;SDS011;53237;46.158;14.604;2022-12-16T00:16:04;42.15;;;35.30;;
66425;SDS011;53237;46.158;14.604;2022-12-16T00:18:30;22.65;;;20.25;;
66425;SDS011;53237;46.158;14.604;2022-12-16T00:20:56;21.92;;;18.83;;
66425;SDS011;53237;46.158;14.604;2022-12-16T00:23:22;20.50;;;18.30;;
66425;SDS011;53237;46.158;14.604;2022-12-16T00:25:49;20.90;;;18.55;;
66425;SDS011;53237;46.158;14.604;2022-12-16T00:28:15;30.05;;;25.58;;
66425;SDS011;53237;46.158;14.604;2022-12-16T00:30:42;22.50;;;18.77;;
66425;SDS011;53237;46.158;14.604;2022-12-16T00:33:08;20.65;;;16.90;;
66425;SDS011;53237;46.158;14.604;2022-12-16T00:35:34;19.10;;;17.13;;
66425;SDS011;53237;46.158;14.604;2022-12-16T00:38:00;20.52;;;18.33;;
66425;SDS011;53237;46.158;14.604;2022-12-16T00:40:26;18.67;;;16.63;;
66425;SDS011;53237;46.158;14.604;2022-12-16T00:42:52;32.45;;;26.73;;
66425;SDS011;53237;46.158;14.604;2022-12-16T00:45:18;21.48;;;19.20;;
66425;SDS011;53237;46.158;14.604;2022-12-16T00:47:44;19.73;;;17.38;;
66425;SDS011;53237;46.158;14.604;2022-12-16T00:50:10;19.02;;;16.60;;
66425;SDS011;53237;46.158;14.604;2022-12-16T00:52:37;18.15;;;16.25;;
66425;SDS011;53237;46.158;14.604;2022-12-16T00:55:03;19.25;;;16.85;;
66425;SDS011;53237;46.158;14.604;2022-12-16T00:57:29;19.13;;;17.13;;
66425;SDS011;53237;46.158;14.604;2022-12-16T00:59:55;18.20;;;16.17;;
66425;SDS011;53237;46.158;14.604;2022-12-16T01:02:21;17.67;;;15.88;;
66425;SDS011;53237;46.158;14.604;2022-12-16T01:04:47;18.70;;;16.23;;
66425;SDS011;53237;46.158;14.604;2022-12-16T01:07:13;19.40;;;17.40;;
66425;SDS011;53237;46.158;14.604;2022-12-16T01:09:39;18.00;;;16.00;;
66425;SDS011;53237;46.158;14.604;2022-12-16T01:12:05;17.67;;;15.77;;
66425;SDS011;53237;46.158;14.604;2022-12-16T01:14:31;18.17;;;16.30;;
66425;SDS011;53237;46.158;14.604;2022-12-16T01:16:57;20.75;;;17.33;;
66425;SDS011;53237;46.158;14.604;2022-12-16T01:19:23;17.42;;;14.98;;
66425;SDS011;53237;46.158;14.604;2022-12-16T01:21:49;17.65;;;15.40;;
66425;SDS011;53237;46.158;14.604;2022-12-16T01:24:15;21.98;;;18.75;;
66425;SDS011;53237;46.158;14.604;2022-12-16T01:26:41;17.58;;;15.75;;
66425;SDS011;53237;46.158;14.604;2022-12-16T01:29:06;17.13;;;15.10;;
66425;SDS011;53237;46.158;14.604;2022-12-16T01:31:33;17.30;;;15.50;;
66425;SDS011;53237;46.158;14.604;2022-12-16T01:33:59;19.73;;;17.65;;
66425;SDS011;53237;46.158;14.604;2022-12-16T01:36:24;21.40;;;19.17;;
66425;SDS011;53237;46.158;14.604;2022-12-16T01:38:51;17.17;;;15.38;;
66425;SDS011;53237;46.158;14.604;2022-12-16T01:41:17;16.60;;;14.50;;
66425;SDS011;53237;46.158;14.604;2022-12-16T01:43:43;15.75;;;14.10;;
66425;SDS011;53237;46.158;14.604;2022-12-16T01:46:15;15.88;;;14.25;;
66425;SDS011;53237;46.158;14.604;2022-12-16T01:48:44;16.08;;;14.27;;
66425;SDS011;53237;46.158;14.604;2022-12-16T01:53:50;15.13;;;13.52;;
66425;SDS011;53237;46.158;14.604;2022-12-16T01:56:19;32.22;;;27.45;;
66425;SDS011;53237;46.158;14.604;2022-12-16T01:58:47;14.77;;;13.38;;
66425;SDS011;53237;46.158;14.604;2022-12-16T02:01:13;19.75;;;17.65;;
66425;SDS011;53237;46.158;14.604;2022-12-16T02:03:40;14.93;;;13.43;;
66425;SDS011;53237;46.158;14.604;2022-12-16T02:06:07;19.80;;;17.80;;
66425;SDS011;53237;46.158;14.604;2022-12-16T02:08:33;14.45;;;12.98;;
66425;SDS011;53237;46.158;14.604;2022-12-16T02:31:50;14.07;;;12.32;;
66425;SDS011;53237;46.158;14.604;2022-12-16T02:37:08;14.90;;;13.40;;
66425;SDS011;53237;46.158;14.604;2022-12-16T02:39:48;13.93;;;12.48;;
66425;SDS011;53237;46.158;14.604;2022-12-16T02:42:20;14.60;;;13.10;;
66425;SDS011;53237;46.158;14.604;2022-12-16T02:45:10;15.15;;;13.65;;
66425;SDS011;53237;46.158;14.604;2022-12-16T02:47:38;15.55;;;14.05;;
66425;SDS011;53237;46.158;14.604;2022-12-16T02:50:05;14.80;;;13.30;;
66425;SDS011;53237;46.158;14.604;2022-12-16T02:52:31;14.57;;;13.07;;
66425;SDS011;53237;46.158;14.604;2022-12-16T02:55:00;14.25;;;12.80;;
66425;SDS011;53237;46.158;14.604;2022-12-16T03:00:06;14.95;;;13.35;;
66425;SDS011;53237;46.158;14.604;2022-12-16T03:05:16;15.57;;;13.97;;
66425;SDS011;53237;46.158;14.604;2022-12-16T03:07:44;13.23;;;11.95;;
66425;SDS011;53237;46.158;14.604;2022-12-16T03:10:12;13.57;;;12.15;;
66425;SDS011;53237;46.158;14.604;2022-12-16T03:12:39;13.50;;;12.23;;
66425;SDS011;53237;46.158;14.604;2022-12-16T03:15:07;13.27;;;11.98;;
66425;SDS011;53237;46.158;14.604;2022-12-16T03:17:33;14.50;;;13.10;;
66425;SDS011;53237;46.158;14.604;2022-12-16T03:20:07;14.98;;;13.57;;
66425;SDS011;53237;46.158;14.604;2022-12-16T03:22:35;13.73;;;12.32;;
66425;SDS011;53237;46.158;14.604;2022-12-16T03:25:03;13.48;;;12.18;;
66425;SDS011;53237;46.158;14.604;2022-12-16T03:27:47;12.65;;;11.52;;
66425;SDS011;53237;46.158;14.604;2022-12-16T03:30:22;12.10;;;11.00;;
66425;SDS011;53237;46.158;14.604;2022-12-16T03:32:50;12.77;;;11.57;;
66425;SDS011;53237;46.158;14.604;2022-12-16T03:35:19;12.13;;;10.93;;
66425;SDS011;53237;46.158;14.604;2022-12-16T03:37:47;11.95;;;10.80;;
66425;SDS011;53237;46.158;14.604;2022-12-16T03:40:14;12.65;;;11.48;;
66425;SDS011;53237;46.158;14.604;2022-12-16T03:42:40;13.32;;;12.02;;
66425;SDS011;53237;46.158;14.604;2022-12-16T03:45:07;11.63;;;10.52;;
66425;SDS011;53237;46.158;14.604;2022-12-16T03:47:36;11.68;;;10.65;;
66425;SDS011;53237;46.158;14.604;2022-12-16T03:50:02;12.10;;;11.00;;
66425;SDS011;53237;46.158;14.604;2022-12-16T03:52:28;20.35;;;18.30;;
66425;SDS011;53237;46.158;14.604;2022-12-16T03:54:54;17.70;;;16.00;;
66425;SDS011;53237;46.158;14.604;2022-12-16T03:57:20;24.25;;;21.50;;
66425;SDS011;53237;46.158;14.604;2022-12-16T03:59:46;18.77;;;16.88;;
66425;SDS011;53237;46.158;14.604;2022-12-16T04:02:12;26.83;;;23.83;;
66425;SDS011;53237;46.158;14.604;2022-12-16T04:04:38;31.00;;;26.83;;
66425;SDS011;53237;46.158;14.604;2022-12-16T04:07:04;18.55;;;16.75;;
66425;SDS011;53237;46.158;14.604;2022-12-16T04:09:46;14.75;;;13.25;;
66425;SDS011;53237;46.158;14.604;2022-12-16T04:12:12;17.67;;;15.98;;
66425;SDS011;53237;46.158;14.604;2022-12-16T04:14:57;15.02;;;13.52;;
66425;SDS011;53237;46.158;14.604;2022-12-16T04:17:41;13.45;;;12.25;;
66425;SDS011;53237;46.158;14.604;2022-12-16T04:20:33;13.10;;;11.80;;
66425;SDS011;53237;46.158;14.604;2022-12-16T04:23:19;14.20;;;12.70;;
66425;SDS011;53237;46.158;14.604;2022-12-16T04:26:03;14.93;;;13.05;;
66425;SDS011;53237;46.158;14.604;2022-12-16T04:28:31;14.77;;;12.88;;
66425;SDS011;53237;46.158;14.604;2022-12-16T04:30:57;15.00;;;13.30;;
66425;SDS011;53237;46.158;14.604;2022-12-16T04:33:23;23.38;;;20.77;;
66425;SDS011;53237;46.158;14.604;2022-12-16T04:36:07;19.02;;;16.85;;
66425;SDS011;53237;46.158;14.604;2022-12-16T04:38:52;15.30;;;13.70;;
66425;SDS011;53237;46.158;14.604;2022-12-16T04:41:37;14.55;;;12.55;;
66425;SDS011;53237;46.158;14.604;2022-12-16T04:44:21;20.65;;;18.45;;
66425;SDS011;53237;46.158;14.604;2022-12-16T04:47:06;23.25;;;20.50;;
66425;SDS011;53237;46.158;14.604;2022-12-16T04:49:51;14.30;;;12.68;;
66425;SDS011;53237;46.158;14.604;2022-12-16T04:52:35;13.23;;;11.77;;
66425;SDS011;53237;46.158;14.604;2022-12-16T04:55:20;12.07;;;10.68;;
66425;SDS011;53237;46.158;14.604;2022-12-16T04:58:05;14.57;;;13.10;;
66425;SDS011;53237;46.158;14.604;2022-12-16T05:00:49;12.02;;;10.75;;
66425;SDS011;53237;46.158;14.604;2022-12-16T05:03:34;13.45;;;12.02;;
66425;SDS011;53237;46.158;14.604;2022-12-16T05:06:19;13.77;;;12.32;;
66425;SDS011;53237;46.158;14.604;2022-12-16T05:09:04;12.90;;;11.60;;
66425;SDS011;53237;46.158;14.604;2022-12-16T05:11:49;13.00;;;11.60;;
66425;SDS011;53237;46.158;14.604;2022-12-16T05:14:34;15.55;;;12.98;;
66425;SDS011;53237;46.158;14.604;2022-12-16T05:17:18;17.13;;;15.35;;
66425;SDS011;53237;46.158;14.604;2022-12-16T05:20:03;14.63;;;13.07;;
66425;SDS011;53237;46.158;14.604;2022-12-16T05:22:49;14.80;;;13.20;;
66425;SDS011;53237;46.158;14.604;2022-12-16T05:25:33;13.35;;;11.98;;
66425;SDS011;53237;46.158;14.604;2022-12-16T05:28:18;13.48;;;12.07;;
66425;SDS011;53237;46.158;14.604;2022-12-16T05:31:03;14.45;;;13.02;;
66425;SDS011;53237;46.158;14.604;2022-12-16T05:33:47;13.50;;;12.10;;
66425;SDS011;53237;46.158;14.604;2022-12-16T05:36:32;13.55;;;12.15;;
66425;SDS011;53237;46.158;14.604;2022-12-16T05:39:17;14.43;;;12.98;;
66425;SDS011;53237;46.158;14.604;2022-12-16T05:42:01;13.68;;;12.27;;
66425;SDS011;53237;46.158;14.604;2022-12-16T05:44:46;13.68;;;12.27;;
66425;SDS011;53237;46.158;14.604;2022-12-16T05:47:30;12.95;;;11.65;;
66425;SDS011;53237;46.158;14.604;2022-12-16T05:50:15;13.13;;;11.73;;
66425;SDS011;53237;46.158;14.604;2022-12-16T05:53:00;11.90;;;10.70;;
66425;SDS011;53237;46.158;14.604;2022-12-16T05:55:44;16.40;;;13.85;;
66425;SDS011;53237;46.158;14.604;2022-12-16T05:58:29;15.80;;;13.20;;
66425;SDS011;53237;46.158;14.604;2022-12-16T06:01:13;17.65;;;13.40;;
66425;SDS011;53237;46.158;14.604;2022-12-16T06:03:58;15.73;;;13.98;;
66425;SDS011;53237;46.158;14.604;2022-12-16T06:06:42;12.45;;;11.15;;
66425;SDS011;53237;46.158;14.604;2022-12-16T06:09:27;13.27;;;11.98;;
66425;SDS011;53237;46.158;14.604;2022-12-16T06:12:12;13.50;;;11.95;;
66425;SDS011;53237;46.158;14.604;2022-12-16T06:14:56;32.40;;;23.52;;
66425;SDS011;53237;46.158;14.604;2022-12-16T06:17:41;37.80;;;27.73;;
66425;SDS011;53237;46.158;14.604;2022-12-16T06:20:26;20.15;;;16.17;;
66425;SDS011;53237;46.158;14.604;2022-12-16T06:23:11;22.48;;;17.55;;
66425;SDS011;53237;46.158;14.604;2022-12-16T06:25:55;27.98;;;23.33;;
66425;SDS011;53237;46.158;14.604;2022-12-16T06:28:40;15.88;;;14.15;;
66425;SDS011;53237;46.158;14.604;2022-12-16T06:31:24;14.50;;;13.00;;
66425;SDS011;53237;46.158;14.604;2022-12-16T06:34:09;16.52;;;12.77;;
66425;SDS011;53237;46.158;14.604;2022-12-16T06:36:53;14.57;;;12.60;;
66425;SDS011;53237;46.158;14.604;2022-12-16T06:39:38;14.23;;;12.13;;
66425;SDS011;53237;46.158;14.604;2022-12-16T06:42:22;14.32;;;12.50;;
66425;SDS011;53237;46.158;14.604;2022-12-16T06:45:07;13.68;;;12.27;;
66425;SDS011;53237;46.158;14.604;2022-12-16T06:47:52;14.68;;;12.68;;
66425;SDS011;53237;46.158;14.604;2022-12-16T06:50:36;13.50;;;11.98;;
66425;SDS011;53237;46.158;14.604;2022-12-16T06:53:21;12.23;;;10.90;;
66425;SDS011;53237;46.158;14.604;2022-12-16T06:56:06;14.32;;;12.23;;
66425;SDS011;53237;46.158;14.604;2022-12-16T06:58:51;13.32;;;11.93;;
66425;SDS011;53237;46.158;14.604;2022-12-16T07:01:36;12.48;;;11.20;;
66425;SDS011;53237;46.158;14.604;2022-12-16T07:04:20;11.75;;;10.23;;
66425;SDS011;53237;46.158;14.604;2022-12-16T07:07:04;13.40;;;11.57;;
66425;SDS011;53237;46.158;14.604;2022-12-16T07:09:49;13.75;;;12.15;;
66425;SDS011;53237;46.158;14.604;2022-12-16T07:12:34;25.80;;;22.35;;
66425;SDS011;53237;46.158;14.604;2022-12-16T07:15:18;22.27;;;19.27;;
66425;SDS011;53237;46.158;14.604;2022-12-16T07:18:03;12.95;;;11.65;;
66425;SDS011;53237;46.158;14.604;2022-12-16T07:20:47;14.07;;;12.68;;
66425;SDS011;53237;46.158;14.604;2022-12-16T07:23:32;58.70;;;44.22;;
66425;SDS011;53237;46.158;14.604;2022-12-16T07:26:16;14.85;;;13.32;;
66425;SDS011;53237;46.158;14.604;2022-12-16T07:29:01;14.88;;;13.35;;
66425;SDS011;53237;46.158;14.604;2022-12-16T07:31:46;47.78;;;35.40;;
66425;SDS011;53237;46.158;14.604;2022-12-16T07:34:30;24.70;;;20.33;;
66425;SDS011;53237;46.158;14.604;2022-12-16T07:37:15;16.15;;;14.43;;
66425;SDS011;53237;46.158;14.604;2022-12-16T07:39:59;31.17;;;26.38;;
66425;SDS011;53237;46.158;14.604;2022-12-16T07:42:47;16.95;;;15.15;;
66425;SDS011;53237;46.158;14.604;2022-12-16T07:45:32;25.45;;;22.17;;
66425;SDS011;53237;46.158;14.604;2022-12-16T07:48:16;22.67;;;18.67;;
66425;SDS011;53237;46.158;14.604;2022-12-16T07:51:01;16.42;;;14.73;;
66425;SDS011;53237;46.158;14.604;2022-12-16T07:53:46;22.38;;;18.75;;
66425;SDS011;53237;46.158;14.604;2022-12-16T07:56:30;36.17;;;27.33;;
66425;SDS011;53237;46.158;14.604;2022-12-16T07:59:15;17.63;;;15.82;;
66425;SDS011;53237;46.158;14.604;2022-12-16T08:01:59;16.45;;;14.73;;
66425;SDS011;53237;46.158;14.604;2022-12-16T08:04:44;31.70;;;26.27;;
66425;SDS011;53237;46.158;14.604;2022-12-16T08:07:28;21.88;;;19.58;;
66425;SDS011;53237;46.158;14.604;2022-12-16T08:10:13;18.92;;;16.48;;
66425;SDS011;53237;46.158;14.604;2022-12-16T08:13:01;27.95;;;22.65;;
66425;SDS011;53237;46.158;14.604;2022-12-16T08:16:00;19.02;;;16.80;;
66425;SDS011;53237;46.158;14.604;2022-12-16T08:18:44;16.33;;;14.63;;
66425;SDS011;53237;46.158;14.604;2022-12-16T08:21:29;16.55;;;14.80;;
66425;SDS011;53237;46.158;14.604;2022-12-16T08:24:14;18.25;;;16.35;;
66425;SDS011;53237;46.158;14.604;2022-12-16T08:26:58;15.50;;;13.90;;
66425;SDS011;53237;46.158;14.604;2022-12-16T08:29:43;15.88;;;14.27;;
66425;SDS011;53237;46.158;14.604;2022-12-16T08:32:28;15.65;;;13.98;;
66425;SDS011;53237;46.158;14.604;2022-12-16T08:37:54;15.93;;;14.20;;
66425;SDS011;53237;46.158;14.604;2022-12-16T08:40:40;16.58;;;14.73;;
66425;SDS011;53237;46.158;14.604;2022-12-16T08:43:24;16.90;;;15.10;;
66425;SDS011;53237;46.158;14.604;2022-12-16T08:46:09;15.57;;;13.98;;
66425;SDS011;53237;46.158;14.604;2022-12-16T08:48:53;14.90;;;13.25;;
66425;SDS011;53237;46.158;14.604;2022-12-16T08:51:38;15.07;;;13.48;;
66425;SDS011;53237;46.158;14.604;2022-12-16T08:54:23;13.55;;;12.20;;
66425;SDS011;53237;46.158;14.604;2022-12-16T08:57:07;15.52;;;13.52;;
66425;SDS011;53237;46.158;14.604;2022-12-16T08:59:52;13.63;;;12.13;;
66425;SDS011;53237;46.158;14.604;2022-12-16T09:02:36;13.25;;;11.85;;
66425;SDS011;53237;46.158;14.604;2022-12-16T09:05:25;21.85;;;18.02;;
66425;SDS011;53237;46.158;14.604;2022-12-16T09:08:10;15.38;;;13.57;;
66425;SDS011;53237;46.158;14.604;2022-12-16T09:10:58;16.73;;;14.93;;
66425;SDS011;53237;46.158;14.604;2022-12-16T09:13:43;13.63;;;12.20;;
66425;SDS011;53237;46.158;14.604;2022-12-16T09:16:28;17.73;;;15.93;;
66425;SDS011;53237;46.158;14.604;2022-12-16T09:19:12;15.85;;;14.25;;
66425;SDS011;53237;46.158;14.604;2022-12-16T09:21:57;15.40;;;13.82;;
66425;SDS011;53237;46.158;14.604;2022-12-16T09:24:41;13.07;;;11.77;;
66425;SDS011;53237;46.158;14.604;2022-12-16T09:27:26;16.30;;;13.95;;
66425;SDS011;53237;46.158;14.604;2022-12-16T09:30:10;13.80;;;12.40;;
66425;SDS011;53237;46.158;14.604;2022-12-16T09:32:55;22.17;;;19.92;;
66425;SDS011;53237;46.158;14.604;2022-12-16T09:35:40;21.80;;;19.33;;
66425;SDS011;53237;46.158;14.604;2022-12-16T09:38:25;27.02;;;21.13;;
66425;SDS011;53237;46.158;14.604;2022-12-16T09:41:54;37.53;;;29.20;;
66425;SDS011;53237;46.158;14.604;2022-12-16T09:50:15;17.15;;;15.35;;
66425;SDS011;53237;46.158;14.604;2022-12-16T09:53:02;17.67;;;14.45;;
66425;SDS011;53237;46.158;14.604;2022-12-16T09:55:47;17.08;;;15.35;;
66425;SDS011;53237;46.158;14.604;2022-12-16T09:58:40;22.65;;;19.58;;
66425;SDS011;53237;46.158;14.604;2022-12-16T10:01:26;20.55;;;18.33;;
66425;SDS011;53237;46.158;14.604;2022-12-16T10:04:15;21.52;;;19.23;;
66425;SDS011;53237;46.158;14.604;2022-12-16T10:07:00;16.77;;;15.10;;
66425;SDS011;53237;46.158;14.604;2022-12-16T10:09:59;14.05;;;12.55;;
66425;SDS011;53237;46.158;14.604;2022-12-16T10:15:59;12.93;;;11.45;;
66425;SDS011;53237;46.158;14.604;2022-12-16T10:24:54;20.98;;;16.33;;
66425;SDS011;53237;46.158;14.604;2022-12-16T10:27:44;18.08;;;14.60;;
66425;SDS011;53237;46.158;14.604;2022-12-16T10:30:30;20.20;;;17.33;;
66425;SDS011;53237;46.158;14.604;2022-12-16T10:33:16;27.90;;;22.00;;
66425;SDS011;53237;46.158;14.604;2022-12-16T10:36:02;20.67;;;17.08;;
66425;SDS011;53237;46.158;14.604;2022-12-16T10:38:53;34.50;;;24.20;;
66425;SDS011;53237;46.158;14.604;2022-12-16T10:41:39;16.70;;;13.55;;
66425;SDS011;53237;46.158;14.604;2022-12-16T10:44:25;20.33;;;17.15;;
66425;SDS011;53237;46.158;14.604;2022-12-16T10:47:12;17.38;;;14.52;;
66425;SDS011;53237;46.158;14.604;2022-12-16T10:49:57;18.38;;;14.23;;
66425;SDS011;53237;46.158;14.604;2022-12-16T10:52:43;15.73;;;13.52;;
66425;SDS011;53237;46.158;14.604;2022-12-16T10:55:46;24.08;;;20.17;;
66425;SDS011;53237;46.158;14.604;2022-12-16T10:58:45;35.72;;;26.60;;
66425;SDS011;53237;46.158;14.604;2022-12-16T11:01:30;25.42;;;21.30;;
66425;SDS011;53237;46.158;14.604;2022-12-16T11:04:34;18.80;;;16.42;;
66425;SDS011;53237;46.158;14.604;2022-12-16T11:07:33;24.60;;;20.27;;
66425;SDS011;53237;46.158;14.604;2022-12-16T11:16:27;22.73;;;20.30;;
66425;SDS011;53237;46.158;14.604;2022-12-16T11:19:17;17.10;;;15.00;;
66425;SDS011;53237;46.158;14.604;2022-12-16T11:22:06;23.75;;;20.98;;
66425;SDS011;53237;46.158;14.604;2022-12-16T11:25:03;16.02;;;13.85;;
66425;SDS011;53237;46.158;14.604;2022-12-16T11:28:01;17.25;;;14.27;;
66425;SDS011;53237;46.158;14.604;2022-12-16T11:30:48;22.92;;;20.25;;
66425;SDS011;53237;46.158;14.604;2022-12-16T11:33:34;15.48;;;13.57;;
66425;SDS011;53237;46.158;14.604;2022-12-16T11:36:19;15.68;;;14.02;;
66425;SDS011;53237;46.158;14.604;2022-12-16T11:39:05;17.63;;;14.10;;
66425;SDS011;53237;46.158;14.604;2022-12-16T11:41:54;15.13;;;13.52;;
66425;SDS011;53237;46.158;14.604;2022-12-16T11:50:18;16.05;;;14.35;;
66425;SDS011;53237;46.158;14.604;2022-12-16T11:53:04;25.40;;;22.38;;
66425;SDS011;53237;46.158;14.604;2022-12-16T11:55:51;18.27;;;16.27;;
66425;SDS011;53237;46.158;14.604;2022-12-16T12:04:12;27.48;;;23.48;;
66425;SDS011;53237;46.158;14.604;2022-12-16T12:09:48;18.30;;;15.55;;
66425;SDS011;53237;46.158;14.604;2022-12-16T12:12:42;17.40;;;15.50;;
66425;SDS011;53237;46.158;14.604;2022-12-16T12:15:36;18.17;;;15.98;;
66425;SDS011;53237;46.158;14.604;2022-12-16T12:18:37;17.83;;;15.93;;
66425;SDS011;53237;46.158;14.604;2022-12-16T12:21:32;17.50;;;15.68;;
66425;SDS011;53237;46.158;14.604;2022-12-16T12:27:25;27.55;;;24.75;;
66425;SDS011;53237;46.158;14.604;2022-12-16T12:30:15;92.22;;;51.92;;
66425;SDS011;53237;46.158;14.604;2022-12-16T12:41:53;34.28;;;22.38;;
66425;SDS011;53237;46.158;14.604;2022-12-16T12:44:47;24.25;;;20.88;;
66425;SDS011;53237;46.158;14.604;2022-12-16T12:47:33;29.08;;;24.90;;
66425;SDS011;53237;46.158;14.604;2022-12-16T12:50:28;48.13;;;28.17;;
66425;SDS011;53237;46.158;14.604;2022-12-16T12:53:16;28.98;;;19.88;;
66425;SDS011;53237;46.158;14.604;2022-12-16T12:58:49;29.90;;;20.02;;
66425;SDS011;53237;46.158;14.604;2022-12-16T13:01:35;17.80;;;15.98;;
66425;SDS011;53237;46.158;14.604;2022-12-16T13:04:21;27.20;;;20.52;;
66425;SDS011;53237;46.158;14.604;2022-12-16T13:07:07;22.65;;;20.27;;
66425;SDS011;53237;46.158;14.604;2022-12-16T13:15:59;19.92;;;17.77;;
66425;SDS011;53237;46.158;14.604;2022-12-16T13:18:44;19.52;;;15.23;;
66425;SDS011;53237;46.158;14.604;2022-12-16T13:27:11;18.00;;;15.13;;
66425;SDS011;53237;46.158;14.604;2022-12-16T13:30:01;20.23;;;18.10;;
66425;SDS011;53237;46.158;14.604;2022-12-16T13:33:00;24.98;;;22.38;;
66425;SDS011;53237;46.158;14.604;2022-12-16T13:35:56;17.20;;;14.13;;
66425;SDS011;53237;46.158;14.604;2022-12-16T13:38:45;18.05;;;15.60;;
66425;SDS011;53237;46.158;14.604;2022-12-16T13:44:57;26.33;;;23.40;;
66425;SDS011;53237;46.158;14.604;2022-12-16T13:47:30;30.67;;;26.42;;
66425;SDS011;53237;46.158;14.604;2022-12-16T13:53:19;28.70;;;24.27;;
66425;SDS011;53237;46.158;14.604;2022-12-16T13:56:05;24.42;;;20.67;;
66425;SDS011;53237;46.158;14.604;2022-12-16T13:58:51;32.00;;;27.17;;
66425;SDS011;53237;46.158;14.604;2022-12-16T14:01:37;31.35;;;27.98;;
66425;SDS011;53237;46.158;14.604;2022-12-16T14:04:28;29.13;;;26.13;;
66425;SDS011;53237;46.158;14.604;2022-12-16T14:07:15;33.13;;;28.88;;
66425;SDS011;53237;46.158;14.604;2022-12-16T14:10:00;29.67;;;25.48;;
66425;SDS011;53237;46.158;14.604;2022-12-16T14:12:47;34.40;;;29.65;;
66425;SDS011;53237;46.158;14.604;2022-12-16T14:18:41;43.90;;;33.67;;
66425;SDS011;53237;46.158;14.604;2022-12-16T14:21:41;85.20;;;56.38;;
66425;SDS011;53237;46.158;14.604;2022-12-16T14:24:28;29.65;;;25.17;;
66425;SDS011;53237;46.158;14.604;2022-12-16T14:27:17;27.55;;;24.17;;
66425;SDS011;53237;46.158;14.604;2022-12-16T14:30:11;21.85;;;18.70;;
66425;SDS011;53237;46.158;14.604;2022-12-16T14:32:57;22.02;;;17.20;;
66425;SDS011;53237;46.158;14.604;2022-12-16T14:35:47;19.80;;;16.63;;
66425;SDS011;53237;46.158;14.604;2022-12-16T14:38:35;20.77;;;17.77;;
66425;SDS011;53237;46.158;14.604;2022-12-16T14:41:21;21.63;;;17.50;;
66425;SDS011;53237;46.158;14.604;2022-12-16T14:44:22;29.23;;;24.10;;
66425;SDS011;53237;46.158;14.604;2022-12-16T14:47:25;30.20;;;26.30;;
66425;SDS011;53237;46.158;14.604;2022-12-16T14:50:18;29.83;;;23.85;;
66425;SDS011;53237;46.158;14.604;2022-12-16T14:53:20;28.35;;;23.88;;
66425;SDS011;53237;46.158;14.604;2022-12-16T14:59:16;27.45;;;24.33;;
66425;SDS011;53237;46.158;14.604;2022-12-16T15:02:10;40.33;;;33.67;;
66425;SDS011;53237;46.158;14.604;2022-12-16T15:04:57;28.00;;;25.10;;
66425;SDS011;53237;46.158;14.604;2022-12-16T15:07:42;35.40;;;30.50;;
66425;SDS011;53237;46.158;14.604;2022-12-16T15:18:13;48.70;;;34.80;;
66425;SDS011;53237;46.158;14.604;2022-12-16T15:20:59;40.60;;;29.42;;
66425;SDS011;53237;46.158;14.604;2022-12-16T15:23:45;31.50;;;25.38;;
66425;SDS011;53237;46.158;14.604;2022-12-16T15:26:31;29.15;;;21.38;;
66425;SDS011;53237;46.158;14.604;2022-12-16T15:29:49;23.42;;;19.42;;
66425;SDS011;53237;46.158;14.604;2022-12-16T15:32:33;26.05;;;18.60;;
66425;SDS011;53237;46.158;14.604;2022-12-16T15:41:00;40.95;;;18.35;;
66425;SDS011;53237;46.158;14.604;2022-12-16T15:43:45;47.33;;;17.63;;
66425;SDS011;53237;46.158;14.604;2022-12-16T15:46:31;31.70;;;17.13;;
66425;SDS011;53237;46.158;14.604;2022-12-16T15:52:00;54.17;;;33.03;;
66425;SDS011;53237;46.158;14.604;2022-12-16T15:54:56;33.22;;;24.10;;
66425;SDS011;53237;46.158;14.604;2022-12-16T15:57:53;44.60;;;36.38;;
66425;SDS011;53237;46.158;14.604;2022-12-16T16:00:38;72.65;;;41.40;;
66425;SDS011;53237;46.158;14.604;2022-12-16T16:03:27;79.53;;;23.67;;
66425;SDS011;53237;46.158;14.604;2022-12-16T16:12:16;40.83;;;27.05;;
66425;SDS011;53237;46.158;14.604;2022-12-16T16:15:02;43.00;;;35.03;;
66425;SDS011;53237;46.158;14.604;2022-12-16T16:17:47;37.00;;;31.23;;
66425;SDS011;53237;46.158;14.604;2022-12-16T16:20:33;42.28;;;26.10;;
66425;SDS011;53237;46.158;14.604;2022-12-16T16:23:18;51.58;;;24.15;;
66425;SDS011;53237;46.158;14.604;2022-12-16T16:26:03;64.60;;;29.98;;
66425;SDS011;53237;46.158;14.604;2022-12-16T16:28:49;67.60;;;27.98;;
66425;SDS011;53237;46.158;14.604;2022-12-16T16:31:34;47.25;;;34.55;;
66425;SDS011;53237;46.158;14.604;2022-12-16T16:34:18;40.45;;;26.92;;
66425;SDS011;53237;46.158;14.604;2022-12-16T16:37:06;40.60;;;29.92;;
66425;SDS011;53237;46.158;14.604;2022-12-16T16:39:54;47.03;;;33.33;;
66425;SDS011;53237;46.158;14.604;2022-12-16T16:42:39;34.25;;;26.08;;
66425;SDS011;53237;46.158;14.604;2022-12-16T16:45:23;31.20;;;22.73;;
66425;SDS011;53237;46.158;14.604;2022-12-16T16:48:09;33.95;;;21.55;;
66425;SDS011;53237;46.158;14.604;2022-12-16T16:50:56;30.90;;;23.50;;
66425;SDS011;53237;46.158;14.604;2022-12-16T16:53:41;36.65;;;22.30;;
66425;SDS011;53237;46.158;14.604;2022-12-16T16:56:25;35.45;;;21.30;;
66425;SDS011;53237;46.158;14.604;2022-12-16T16:59:11;30.33;;;22.50;;
66425;SDS011;53237;46.158;14.604;2022-12-16T17:01:56;50.20;;;37.35;;
66425;SDS011;53237;46.158;14.604;2022-12-16T17:04:41;48.60;;;38.33;;
66425;SDS011;53237;46.158;14.604;2022-12-16T17:07:26;40.50;;;30.02;;
66425;SDS011;53237;46.158;14.604;2022-12-16T17:10:10;35.80;;;27.10;;
66425;SDS011;53237;46.158;14.604;2022-12-16T17:12:55;30.38;;;24.17;;
66425;SDS011;53237;46.158;14.604;2022-12-16T17:15:40;31.33;;;23.95;;
66425;SDS011;53237;46.158;14.604;2022-12-16T17:18:25;21.98;;;18.45;;
66425;SDS011;53237;46.158;14.604;2022-12-16T17:21:09;24.10;;;18.50;;
66425;SDS011;53237;46.158;14.604;2022-12-16T17:23:54;24.20;;;19.85;;
66425;SDS011;53237;46.158;14.604;2022-12-16T17:26:42;27.80;;;18.55;;
66425;SDS011;53237;46.158;14.604;2022-12-16T17:29:27;62.05;;;45.60;;
66425;SDS011;53237;46.158;14.604;2022-12-16T17:32:12;22.63;;;17.65;;
66425;SDS011;53237;46.158;14.604;2022-12-16T17:34:57;14.88;;;13.23;;
66425;SDS011;53237;46.158;14.604;2022-12-16T17:37:42;22.17;;;17.70;;
66425;SDS011;53237;46.158;14.604;2022-12-16T17:40:27;21.83;;;17.95;;
66425;SDS011;53237;46.158;14.604;2022-12-16T17:43:12;24.25;;;17.88;;